createdAt,value
2017-06-30T00:06:33.000Z,993.268
2017-06-30T00:16:33.000Z,993.329
2017-06-30T00:26:33.000Z,993.467
2017-06-30T00:36:33.000Z,993.505
2017-06-30T00:46:33.000Z,993.524
2017-06-30T00:56:33.000Z,993.507
2017-06-30T01:06:33.000Z,993.576
2017-06-30T01:16:33.000Z,993.462
2017-06-30T01:26:33.000Z,993.495
2017-06-30T01:36:33.000Z,993.491
2017-06-30T01:46:33.000Z,993.522
2017-06-30T01:56:33.000Z,993.544
2017-06-30T02:06:33.000Z,993.557
2017-06-30T02:16:33.000Z,993.629
2017-06-30T02:26:33.000Z,993.671
2017-06-30T02:36:33.000Z,993.756
2017-06-30T02:46:33.000Z,993.785
2017-06-30T02:56:33.000Z,993.877
2017-06-30T03:06:33.000Z,993.972
2017-06-30T03:16:33.000Z,993.98
2017-06-30T03:26:33.000Z,994.045
2017-06-30T03:36:33.000Z,994.027
2017-06-30T03:46:33.000Z,994.06
2017-06-30T03:56:33.000Z,994.127
2017-06-30T04:06:33.000Z,994.197
2017-06-30T04:16:33.000Z,994.236
2017-06-30T04:26:33.000Z,994.283
2017-06-30T04:36:33.000Z,994.295
2017-06-30T04:46:33.000Z,994.424
2017-06-30T04:56:33.000Z,994.559
2017-06-30T05:06:33.000Z,994.581
2017-06-30T05:16:33.000Z,994.622
2017-06-30T05:26:34.000Z,994.647
2017-06-30T05:36:34.000Z,994.764
2017-06-30T05:46:34.000Z,994.84
2017-06-30T05:56:34.000Z,994.994
2017-06-30T06:06:34.000Z,995.141
2017-06-30T06:16:34.000Z,995.229
2017-06-30T06:26:34.000Z,995.235
2017-06-30T06:36:34.000Z,995.238
2017-06-30T06:46:34.000Z,995.294
2017-06-30T06:56:34.000Z,995.468
2017-06-30T07:06:34.000Z,995.462
2017-06-30T07:16:34.000Z,995.546
2017-06-30T07:26:34.000Z,995.621
2017-06-30T07:36:35.000Z,995.69
2017-06-30T07:46:34.000Z,995.69
2017-06-30T07:56:34.000Z,995.775
2017-06-30T08:06:34.000Z,995.776
2017-06-30T08:16:34.000Z,995.846
2017-06-30T08:26:34.000Z,995.859
2017-06-30T08:36:34.000Z,995.812
2017-06-30T08:46:34.000Z,995.707
2017-06-30T08:56:34.000Z,995.784
2017-06-30T09:06:34.000Z,995.803
2017-06-30T09:16:34.000Z,995.741
2017-06-30T09:26:34.000Z,995.833
2017-06-30T09:36:34.000Z,995.869
2017-06-30T09:46:34.000Z,995.926
2017-06-30T09:56:34.000Z,995.883
2017-06-30T10:06:34.000Z,995.98
2017-06-30T10:16:34.000Z,996.008
2017-06-30T10:26:34.000Z,996.031
2017-06-30T10:36:34.000Z,996.091
2017-06-30T10:46:34.000Z,996.162
2017-06-30T10:56:34.000Z,996.252
2017-06-30T11:06:34.000Z,996.216
2017-06-30T11:16:34.000Z,996.191
2017-06-30T11:26:34.000Z,996.116
2017-06-30T11:36:34.000Z,996.116
2017-06-30T11:46:34.000Z,996.06
2017-06-30T11:56:34.000Z,996.018
2017-06-30T12:06:34.000Z,996.065
2017-06-30T12:16:34.000Z,996.073
2017-06-30T12:26:34.000Z,996.02
2017-06-30T12:36:34.000Z,996.05
2017-06-30T12:46:34.000Z,996.124
2017-06-30T12:56:34.000Z,996.036
2017-06-30T13:06:34.000Z,996.109
2017-06-30T13:16:34.000Z,996.156
2017-06-30T13:26:34.000Z,996.201
2017-06-30T13:36:34.000Z,996.177
2017-06-30T13:46:34.000Z,996.158
2017-06-30T13:56:34.000Z,996.148
2017-06-30T14:06:35.000Z,996.151
2017-06-30T14:16:35.000Z,996.187
2017-06-30T14:26:35.000Z,996.272
2017-06-30T14:36:35.000Z,996.317
2017-06-30T14:46:35.000Z,996.433
2017-06-30T14:56:35.000Z,996.401
2017-06-30T15:06:35.000Z,996.421
2017-06-30T15:16:35.000Z,996.452
2017-06-30T15:26:35.000Z,996.468
2017-06-30T15:36:35.000Z,996.43
2017-06-30T15:46:35.000Z,996.442
2017-06-30T15:56:35.000Z,996.437
2017-06-30T16:06:35.000Z,996.487
2017-06-30T16:16:35.000Z,996.459
2017-06-30T16:26:35.000Z,996.444
2017-06-30T16:36:35.000Z,996.479
2017-06-30T16:46:35.000Z,996.511
2017-06-30T16:56:35.000Z,996.6
2017-06-30T17:06:35.000Z,996.788
2017-06-30T17:16:35.000Z,997.283
2017-06-30T17:26:35.000Z,997.421
2017-06-30T17:36:35.000Z,997.418
2017-06-30T17:46:35.000Z,997.258
2017-06-30T17:56:35.000Z,997.281
2017-06-30T18:06:35.000Z,997.334
2017-06-30T18:16:35.000Z,997.429
2017-06-30T18:26:35.000Z,997.511
2017-06-30T18:36:35.000Z,997.48
2017-06-30T18:46:35.000Z,997.435
2017-06-30T18:56:35.000Z,997.51
2017-06-30T19:06:35.000Z,997.65
2017-06-30T19:16:35.000Z,997.653
2017-06-30T19:26:35.000Z,997.651
2017-06-30T19:36:35.000Z,997.556
2017-06-30T19:46:35.000Z,997.584
2017-06-30T19:56:35.000Z,997.648
2017-06-30T20:06:35.000Z,997.636
2017-06-30T20:16:35.000Z,997.638
2017-06-30T20:26:35.000Z,997.576
2017-06-30T20:36:35.000Z,997.599
2017-06-30T20:46:35.000Z,997.688
2017-06-30T20:56:35.000Z,997.782
2017-06-30T21:06:35.000Z,997.898
2017-06-30T21:16:35.000Z,997.839
2017-06-30T21:26:35.000Z,997.88
2017-06-30T21:36:35.000Z,997.92
2017-06-30T21:46:35.000Z,997.865
2017-06-30T21:56:35.000Z,997.917
2017-06-30T22:06:35.000Z,997.977
2017-06-30T22:16:35.000Z,997.993
2017-06-30T22:26:38.000Z,997.973
2017-06-30T22:36:36.000Z,997.974
2017-06-30T22:46:36.000Z,997.944
2017-06-30T22:56:36.000Z,997.898
2017-06-30T23:06:36.000Z,997.867
2017-06-30T23:16:36.000Z,997.883
2017-06-30T23:26:36.000Z,997.879
2017-06-30T23:36:36.000Z,997.914
2017-06-30T23:46:36.000Z,997.85
2017-06-30T23:56:36.000Z,997.851
